x

Cape Edgecumbe - 25nm Ssw Of Cape Edgecumbe, Ak (46084) Wave Buoy

11:50am - Sun 21st Dec 2014 All times are AKST. -9 hours from GMT.

  • Sig Wave height 11.8ft
  • Peak Period 11s
  • Average Period 9s
  • Wind
    4mph, 7mph gusts
  • Sea Temp 47°f
  • Air Temp 45°f
  • Sea Pressure 995.3mb
  • Cape Edgecumbe - 25nm Ssw Of Cape Edgecumbe, Ak
  • Cape Edgecumbe - 25nm Ssw Of Cape Edgecumbe, Ak

More Historic Weather Station data

Upgrade to MSW Pro to gain access to the past 30 days of data for over 8000 Wavebouys and Weather Stations around the globe.

Join Pro

Comparision Forecast

View Surf forecast
   
Sun 12/21 11:50am 12ft 11s 9s 4 7 mph 995.3mb 47f 45f
10:50am 11.5ft 11s 8s 9 11 mph 994.4mb 47f 45f
9:50am 11ft 11s 8s 9 11 mph 993.7mb 47f 45f
8:50am 10ft 12s 8s 4 7 mph 992.8mb 47f 45f
7:50am 10.5ft 12s 8s 4
mph
992mb 47f 46f
6:50am 10ft 11s 8s 9 11 mph 991.1mb 47f 46f
5:50am 9ft 11s 8s 7 9 mph 990.4mb 47f 46f
4:50am 8ft 11s 8s 7 9 mph 989.8mb 47f 46f
3:50am 8ft 10s 8s 9 11 mph 989.2mb 47f 46f
2:50am 8.5ft 10s 7s 9 13 mph 988.5mb 47f 46f
1:50am 9ft 11s 7s 11 16 mph 987.8mb 47f 45f
12:50am 8ft 11s 7s 11 13 mph 986.9mb 48f 46f
Sat 12/20 11:50pm 8ft 10s 7s 13 16 mph 985.9mb 48f 46f
10:50pm 9ft 10s 7s 13 18 mph 984.9mb 48f 46f
9:50pm 9ft 11s 7s 16 18 mph 984.1mb 48f 46f
8:50pm 8.5ft 9s 6s 18 20 mph 983.2mb 48f 46f
7:50pm 8ft 10s 7s 16 22 mph 982.3mb 48f 45f
6:50pm 9ft 11s 7s 20 25 mph 981.3mb 48f 45f
5:50pm 8ft 11s 6s 20 22 mph 980.6mb 48f 46f
4:50pm 9ft 10s 7s 20 25 mph 979.8mb 48f 45f
3:50pm 9ft 10s 7s 20 22 mph 978.8mb 48f 45f
2:50pm 9.5ft 11s 6s 20 25 mph 977.8mb 48f 45f
1:50pm 10ft 10s 6s 25 29 mph 976.8mb 49f 46f
12:50pm 11.5ft 11s 6s 25 29 mph 975.9mb 49f 46f
11:50am 12ft 12s 6s 34 40 mph 975.3mb 49f 45f
10:50am 13ft 11s 6s 31 38 mph 974.8mb 49f 46f
9:50am 13ft 10s 7s 31 40 mph 974.2mb 49f 47f
8:50am 13.5ft 11s 7s 31 40 mph 974mb 49f 47f
7:50am 12.5ft 10s 7s 36 45 mph 974mb 49f 46f
6:50am 13ft 13s 6s 31 40 mph 974.2mb 49f 47f
5:50am 12.5ft 10s 6s 34 43 mph 974.6mb 49f 47f
4:50am 13ft 13s 6s 34 43 mph 975.1mb 49f 47f
3:50am 12ft 10s 6s 36 43 mph 975.9mb 48f 47f
2:50am 12.5ft 11s 6s 34 40 mph 977mb 49f 47f
1:50am 14ft 14s 7s 31 38 mph 978.1mb 48f 46f
12:50am 13.5ft 14s 7s 34 38 mph 979.2mb 48f 46f
Fri 12/19 11:50pm 12.5ft 14s 7s 31 40 mph 980.7mb 49f 46f
10:50pm 14.5ft 15s 7s 29 38 mph 982mb 49f 45f
9:50pm 12ft 15s 7s 36 45 mph 982.7mb 49f 45f
8:50pm 15ft 15s 8s 27 31 mph 983.5mb 49f 46f
7:50pm 14ft 15s 7s 27 31 mph 983.8mb 49f 48f
6:50pm 14ft 15s 7s 27 34 mph 983.9mb 48f 47f
5:50pm 16.5ft 16s 8s 29 34 mph 983.5mb 48f 46f
4:50pm 16.5ft 15s 7s 38 47 mph 982.9mb 48f 44f
3:50pm 14ft 15s 7s 36 45 mph 983.3mb 49f 46f
2:50pm 14ft 16s 7s 34 40 mph 983.5mb 49f 46f
1:50pm 14.5ft 15s 7s 34 40 mph 983.8mb 49f 46f
12:50pm 13ft 15s 7s 36 45 mph 984.5mb 48f 46f
11:50am 15.5ft 16s 7s 34 40 mph 985.5mb 48f 46f
10:50am 13.5ft 15s 7s 31 40 mph 986.3mb 48f 46f
9:50am 13.5ft 15s 7s 31 38 mph 986.8mb 48f 46f
8:50am 15ft 15s 8s 29 36 mph 987.1mb 48f 46f
7:50am 14.5ft 16s 8s 31 43 mph 987.2mb 48f 45f
6:50am 14.5ft 16s 8s 31 38 mph 987.6mb 48f 45f
5:50am 14.5ft 16s 8s 27 34 mph 988.3mb 48f 45f
4:50am 15ft 16s 8s 29 36 mph 988.8mb 48f 45f
3:50am 13.5ft 17s 8s 29 36 mph 989.2mb 49f 45f
2:50am 14.5ft 17s 8s 27 31 mph 989.4mb 49f 45f
1:50am 13ft 17s 7s 25 31 mph 989.5mb 49f 45f
12:50am 15.5ft 17s 8s 27 31 mph 989.3mb 48f 45f
Thu 12/18 11:50pm 14ft 17s 8s 25 31 mph 989.5mb 48f 45f
10:50pm 13ft 17s 8s 25 29 mph 989.6mb 48f 45f
9:50pm 12ft 19s 7s 25 31 mph 989.3mb 48f 45f
8:50pm 12ft 11s 7s 27 31 mph 989mb 48f 45f
7:50pm 12.5ft 19s 7s 29 34 mph 988.8mb 48f 45f
6:50pm 13ft 11s 7s 29 38 mph 988.6mb 48f 45f
5:50pm 14.5ft 11s 7s 27 34 mph 988.4mb 48f 46f
4:50pm 13.5ft 11s 6s 29 38 mph 988.3mb 49f 44f
3:50pm 13.5ft 9s 6s 36 43 mph 987.2mb 48f 44f
2:50pm 12.5ft 9s 6s 38 49 mph 986.6mb 48f 45f
1:50pm 13ft 8s 6s 36 45 mph 986.6mb 48f 45f
12:50pm 12.5ft 9s 6s 38 45 mph 986.5mb 48f 45f
11:50am 10ft 9s 6s 36 40 mph 987.2mb 48f 46f
10:50am 10.5ft 8s 6s 31 36 mph 988.7mb 48f 45f
9:50am 10ft 8s 6s 29 36 mph 989.8mb 48f 45f
8:50am 10.5ft 8s 6s 34 40 mph 990.6mb 48f 44f
7:50am 10ft 8s 5s 31 38 mph 991.8mb 48f 43f
6:50am 10ft 7s 5s 34 43 mph 993mb 48f 45f
5:50am 10ft 7s 5s 34 43 mph 993.8mb 48f 44f
4:50am 11ft 6s 6s 34 40 mph 994.7mb 48f 44f
3:50am 11ft 8s 6s 34 43 mph 996mb 48f 44f
2:50am 10ft 8s 5s 34 40 mph 996.6mb 48f 44f
1:50am 11ft 8s 6s 31 38 mph 997.2mb 48f 44f
12:50am 11ft 8s 6s 29 38 mph 997.7mb 48f 45f
Wed 12/17 11:50pm 11ft 9s 6s 29 34 mph 998.3mb 48f 45f
10:50pm 11.5ft 8s 6s 29 36 mph 999.1mb 48f 45f
9:50pm 10.5ft 8s 6s 29 34 mph 999.9mb 48f 45f